Weather History for KBWP - November, 2013

Change the Weather History Date:

Saturday, November 9, 2013

  Actual Average (KFFM) Record (KFFM)
Temperature  
Mean Temperature 36 °F -  
Max Temperature 41 °F 39 °F 69 °F (1999)
Min Temperature 32 °F 23 °F 4 °F (1973)
Degree Days  
Heating Degree Days 28    
Moisture  
Dew Point 29 °F    
Average Humidity 76    
Maximum Humidity 93    
Minimum Humidity 65    
Precipitation  
Precipitation 0.00 in - - ()
Sea Level Pressure  
Sea Level Pressure 29.98 in    
Wind  
Wind Speed 16 mph (WNW)    
Max Wind Speed 29 mph    
Max Gust Speed 40 mph    
Visibility 10 miles    
Events      
Averages and records for this station are not official NWS values.
T = Trace of Precipitation, MM = Missing Value Source: NWS Daily Summary

Daily Weather History Graph

Daily Weather History Graph

Search for Another Location

Airport or City:

Trip Planner

Search our weather history database for the weather conditions in past years. The results will help you decide how hot, cold, wet, or windy it might be!

Date:

Astronomy

Nov. 09, 2013 Rise Set
Actual Time 7:19 AM CST 5:00 PM CST
Civil Twilight 6:47 AM CST 5:32 PM CST
Nautical Twilight 6:11 AM CST 6:08 PM CST
Astronomical Twilight 5:36 AM CST 6:43 PM CST
Moon 12:53 PM CST (11/9) 11:37 PM CST (11/9)
Length of Visible Light 10h 45m
Length of Day
9h 41m
Waxing Crescent, 44% of the Moon is Illuminated
Nov 9
Waxing Crescent
Nov 9
First Quarter
Nov 17
Full
Nov 25
Last Quarter
Dec 2
New

Hourly Weather History & Observations

Time (CST) Temp. Windchill Dew Point Humidity Pressure Visibility Wind Dir Wind Speed Gust Speed Precip Events Conditions
12:15 AM 37.4 °F 30.8 °F 33.8 °F 87% 29.65 in 10.0 mi West 9.2 mph - N/A   Overcast
12:35 AM 37.4 °F 30.8 °F 33.8 °F 87% 29.66 in 10.0 mi West 9.2 mph - N/A   Overcast
12:55 AM 37.4 °F 30.8 °F 33.8 °F 87% 29.67 in 10.0 mi West 9.2 mph - N/A   Overcast
1:15 AM 37.4 °F 30.8 °F 33.8 °F 87% 29.67 in 10.0 mi West 9.2 mph - N/A   Overcast
1:35 AM 37.4 °F 30.8 °F 33.8 °F 87% 29.67 in 10.0 mi West 9.2 mph - N/A   Overcast
1:55 AM 37.4 °F 30.3 °F 33.8 °F 87% 29.69 in 10.0 mi West 10.4 mph - N/A   Overcast
2:15 AM 37.4 °F 30.3 °F 35.6 °F 93% 29.69 in 10.0 mi West 10.4 mph - N/A   Overcast
2:35 AM 37.4 °F 29.8 °F 35.6 °F 93% 29.71 in 10.0 mi West 11.5 mph - N/A   Overcast
2:55 AM 39.2 °F 31.6 °F 35.6 °F 87% 29.73 in 10.0 mi WNW 12.7 mph - N/A   Overcast
3:15 AM 39.2 °F 31.6 °F 33.8 °F 81% 29.73 in 10.0 mi NW 12.7 mph 18.4 mph N/A   Overcast
3:35 AM 39.2 °F 30.2 °F 33.8 °F 81% 29.74 in 10.0 mi NW 17.3 mph 23.0 mph N/A   Overcast
3:55 AM 39.2 °F 30.5 °F 33.8 °F 81% 29.74 in 10.0 mi NW 16.1 mph - N/A   Overcast
4:15 AM 41.0 °F 31.1 °F 33.8 °F 76% 29.75 in 10.0 mi NW 23.0 mph 29.9 mph N/A   Overcast
4:35 AM 39.2 °F 30.2 °F 33.8 °F 81% 29.77 in 10.0 mi WNW 17.3 mph 26.5 mph N/A   Overcast
4:55 AM 39.2 °F 31.6 °F 33.8 °F 81% 29.78 in 10.0 mi WNW 12.7 mph 24.2 mph N/A   Overcast
5:15 AM 39.2 °F 29.6 °F 33.8 °F 81% 29.79 in 10.0 mi NW 19.6 mph 24.2 mph N/A   Overcast
5:35 AM 37.4 °F 26.1 °F 33.8 °F 87% 29.81 in 10.0 mi WNW 24.2 mph 29.9 mph N/A   Overcast
5:55 AM 37.4 °F 27.2 °F 33.8 °F 87% 29.82 in 10.0 mi WNW 19.6 mph 28.8 mph N/A   Overcast
6:15 AM 37.4 °F 26.1 °F 32.0 °F 81% 29.83 in 10.0 mi WNW 24.2 mph 28.8 mph N/A   Overcast
6:35 AM 37.4 °F 27.5 °F 32.0 °F 81% 29.84 in 10.0 mi WNW 18.4 mph 28.8 mph N/A   Overcast
6:55 AM 37.4 °F 26.9 °F 32.0 °F 81% 29.86 in 10.0 mi WNW 20.7 mph 26.5 mph N/A   Overcast
7:15 AM 35.6 °F 23.7 °F 30.2 °F 81% 29.87 in 10.0 mi WNW 24.2 mph 31.1 mph N/A   Overcast
7:35 AM 35.6 °F 23.2 °F 28.4 °F 75% 29.88 in 10.0 mi NW 26.5 mph 34.5 mph N/A   Overcast
7:55 AM 35.6 °F 22.7 °F 28.4 °F 75% 29.90 in 10.0 mi WNW 28.8 mph 34.5 mph N/A   Overcast
8:15 AM 35.6 °F 25.2 °F 28.4 °F 75% 29.92 in 10.0 mi WNW 18.4 mph 25.3 mph N/A   Overcast
8:35 AM 33.8 °F 23.5 °F 28.4 °F 81% 29.93 in 10.0 mi WNW 16.1 mph - N/A   Overcast
8:55 AM 35.6 °F 26.6 °F 28.4 °F 75% 29.93 in 10.0 mi WNW 13.8 mph 21.9 mph N/A   Overcast
9:15 AM 35.6 °F 27.1 °F 30.2 °F 81% 29.93 in 10.0 mi NW 12.7 mph - N/A   Overcast
9:35 AM 35.6 °F 28.0 °F 30.2 °F 81% 29.94 in 10.0 mi WNW 10.4 mph - N/A   Overcast
9:55 AM 35.6 °F 24.5 °F 30.2 °F 81% 29.94 in 10.0 mi WNW 20.7 mph - N/A   Overcast
10:15 AM 35.6 °F 23.7 °F 28.4 °F 75% 29.95 in 10.0 mi WNW 24.2 mph 29.9 mph N/A   Overcast
10:35 AM 35.6 °F 23.2 °F 26.6 °F 70% 29.96 in 10.0 mi WNW 26.5 mph 35.7 mph N/A   Overcast
10:55 AM 35.6 °F 23.2 °F 26.6 °F 70% 29.96 in 10.0 mi WNW 26.5 mph 35.7 mph N/A   Overcast
11:15 AM 37.4 °F 27.5 °F 26.6 °F 65% 29.97 in 10.0 mi WNW 18.4 mph - N/A   Overcast
11:35 AM 37.4 °F 26.9 °F 28.4 °F 70% 29.97 in 10.0 mi WNW 20.7 mph 25.3 mph N/A   Overcast
11:55 AM 37.4 °F 25.9 °F 26.6 °F 65% 29.97 in 10.0 mi WNW 25.3 mph 35.7 mph N/A   Overcast
12:15 PM 37.4 °F 26.1 °F 28.4 °F 70% 29.98 in 10.0 mi WNW 24.2 mph 36.8 mph N/A   Overcast
12:35 PM 37.4 °F 25.9 °F 26.6 °F 65% 29.98 in 10.0 mi WNW 25.3 mph 33.4 mph N/A   Overcast
12:55 PM 37.4 °F 25.6 °F 26.6 °F 65% 29.98 in 10.0 mi WNW 26.5 mph 32.2 mph N/A   Overcast
1:15 PM 37.4 °F 26.9 °F 26.6 °F 65% 30.00 in 10.0 mi NW 20.7 mph 40.3 mph N/A   Overcast
1:35 PM 37.4 °F 25.6 °F 26.6 °F 65% 30.01 in 10.0 mi WNW 26.5 mph 36.8 mph N/A   Overcast
1:55 PM 37.4 °F 25.4 °F 26.6 °F 65% 30.02 in 10.0 mi WNW 27.6 mph 34.5 mph N/A   Overcast
2:15 PM 37.4 °F 25.6 °F 26.6 °F 65% 30.03 in 10.0 mi WNW 26.5 mph 35.7 mph N/A   Overcast
2:35 PM 35.6 °F 23.2 °F 26.6 °F 70% 30.04 in 10.0 mi WNW 26.5 mph 32.2 mph N/A   Overcast
2:55 PM 35.6 °F 23.7 °F 26.6 °F 70% 30.05 in 10.0 mi WNW 24.2 mph 34.5 mph N/A   Overcast
3:15 PM 35.6 °F 23.7 °F 26.6 °F 70% 30.06 in 10.0 mi NW 24.2 mph 32.2 mph N/A   Overcast
3:35 PM 35.6 °F 23.4 °F 26.6 °F 70% 30.08 in 10.0 mi NW 25.3 mph 29.9 mph N/A   Overcast
3:55 PM 35.6 °F 24.2 °F 26.6 °F 70% 30.09 in 10.0 mi WNW 21.9 mph 34.5 mph N/A   Overcast
4:15 PM 35.6 °F 24.0 °F 26.6 °F 70% 30.09 in 10.0 mi WNW 23.0 mph 33.4 mph N/A   Overcast
4:35 PM 35.6 °F 23.4 °F 26.6 °F 70% 30.11 in 10.0 mi WNW 25.3 mph 31.1 mph N/A   Overcast
4:55 PM 35.6 °F 24.0 °F 26.6 °F 70% 30.12 in 10.0 mi NW 23.0 mph 28.8 mph N/A   Overcast
5:15 PM 35.6 °F 24.8 °F 26.6 °F 70% 30.13 in 10.0 mi NW 19.6 mph 26.5 mph N/A   Overcast
5:35 PM 35.6 °F 24.5 °F 26.6 °F 70% 30.14 in 10.0 mi WNW 20.7 mph 26.5 mph N/A   Overcast
5:55 PM 35.6 °F 24.5 °F 26.6 °F 70% 30.15 in 10.0 mi NW 20.7 mph 28.8 mph N/A   Overcast
6:15 PM 35.6 °F 24.2 °F 26.6 °F 70% 30.16 in 10.0 mi NW 21.9 mph 25.3 mph N/A   Overcast
6:35 PM 35.6 °F 24.2 °F 26.6 °F 70% 30.18 in 10.0 mi NW 21.9 mph 26.5 mph N/A   Overcast
6:55 PM 33.8 °F 22.5 °F 26.6 °F 75% 30.19 in 10.0 mi NW 19.6 mph 28.8 mph N/A   Overcast
7:15 PM 33.8 °F 22.8 °F 26.6 °F 75% 30.20 in 10.0 mi WNW 18.4 mph 25.3 mph N/A   Overcast
7:35 PM 33.8 °F 22.5 °F 26.6 °F 75% 30.20 in 10.0 mi NW 19.6 mph 25.3 mph N/A   Overcast
8:35 PM 33.8 °F 23.2 °F 26.6 °F 75% 30.23 in 10.0 mi NW 17.3 mph 25.3 mph N/A   Overcast
8:55 PM 33.8 °F 23.2 °F 26.6 °F 75% 30.24 in 10.0 mi NW 17.3 mph 24.2 mph N/A   Overcast
9:15 PM 33.8 °F 23.9 °F 26.6 °F 75% 30.26 in 10.0 mi NW 15.0 mph 20.7 mph N/A   Overcast
9:35 PM 33.8 °F 23.9 °F 26.6 °F 75% 30.26 in 10.0 mi NW 15.0 mph - N/A   Overcast
9:55 PM 33.8 °F 24.3 °F 26.6 °F 75% 30.27 in 10.0 mi NW 13.8 mph 20.7 mph N/A   Overcast
10:15 PM 33.8 °F 24.8 °F 26.6 °F 75% 30.28 in 10.0 mi NW 12.7 mph - N/A   Overcast
10:35 PM 33.8 °F 24.8 °F 26.6 °F 75% 30.28 in 10.0 mi NW 12.7 mph - N/A   Overcast
10:55 PM 32.0 °F 24.2 °F 26.6 °F 80% 30.29 in 10.0 mi NW 9.2 mph - N/A   Overcast
11:15 PM 32.0 °F 24.2 °F 26.6 °F 80% 30.28 in 10.0 mi NW 9.2 mph - N/A   Mostly Cloudy
11:35 PM 32.0 °F 25.6 °F 26.6 °F 80% 30.29 in 10.0 mi NW 6.9 mph - N/A   Mostly Cloudy
11:55 PM 32.0 °F 25.6 °F 26.6 °F 80% 30.29 in 10.0 mi NW 6.9 mph - N/A   Scattered Clouds